createdAt,value
2017-11-24T00:02:06.083Z,73.43
2017-11-24T00:04:33.574Z,76.53
2017-11-24T00:07:01.052Z,70.60
2017-11-24T00:09:28.555Z,70.60
2017-11-24T00:11:56.016Z,74.00
2017-11-24T00:14:23.482Z,64.63
2017-11-24T00:16:50.975Z,66.07
2017-11-24T00:19:18.446Z,57.60
2017-11-24T00:21:45.911Z,57.47
2017-11-24T00:24:13.389Z,63.70
2017-11-24T00:26:40.851Z,66.53
2017-11-24T00:29:08.318Z,69.73
2017-11-24T00:31:36.644Z,50.80
2017-11-24T00:34:04.121Z,55.70
2017-11-24T00:36:31.590Z,57.93
2017-11-24T00:38:59.075Z,59.77
2017-11-24T00:41:26.566Z,50.90
2017-11-24T00:43:54.026Z,56.73
2017-11-24T00:46:21.505Z,52.53
2017-11-24T00:48:48.987Z,53.83
2017-11-24T00:51:16.470Z,52.20
2017-11-24T00:53:43.951Z,75.43
2017-11-24T00:56:11.406Z,69.17
2017-11-24T00:58:38.882Z,66.63
2017-11-24T01:01:06.340Z,63.70
2017-11-24T01:03:33.822Z,54.03
2017-11-24T01:06:01.291Z,43.67
2017-11-24T01:08:28.766Z,48.77
2017-11-24T01:10:56.226Z,45.27
2017-11-24T01:13:23.686Z,46.57
2017-11-24T01:15:51.186Z,52.73
2017-11-24T01:18:18.646Z,44.57
2017-11-24T01:20:46.122Z,71.73
2017-11-24T01:23:13.607Z,51.87
2017-11-24T01:25:41.066Z,53.20
2017-11-24T01:28:08.527Z,69.30
2017-11-24T01:30:36.007Z,52.87
2017-11-24T01:33:03.501Z,53.63
2017-11-24T01:35:30.972Z,51.80
2017-11-24T01:37:58.438Z,59.37
2017-11-24T01:40:25.927Z,50.57
2017-11-24T01:42:53.399Z,65.00
2017-11-24T01:45:20.878Z,50.73
2017-11-24T01:47:48.370Z,52.67
2017-11-24T01:50:15.841Z,60.17
2017-11-24T01:52:43.325Z,55.57
2017-11-24T01:55:10.781Z,77.10
2017-11-24T01:57:38.267Z,57.97
2017-11-24T02:00:05.737Z,68.40
2017-11-24T02:02:33.221Z,64.73
2017-11-24T02:05:00.684Z,56.47
2017-11-24T02:07:28.152Z,67.30
2017-11-24T02:09:55.650Z,59.30
2017-11-24T02:12:23.101Z,70.73
2017-11-24T02:14:50.553Z,78.30
2017-11-24T02:17:18.209Z,87.27
2017-11-24T02:19:45.678Z,81.10
2017-11-24T02:22:13.140Z,83.47
2017-11-24T02:24:40.636Z,83.60
2017-11-24T02:27:08.100Z,78.87
2017-11-24T02:29:35.593Z,78.77
2017-11-24T02:32:03.055Z,67.07
2017-11-24T02:34:30.521Z,63.67
2017-11-24T02:36:58.006Z,65.57
2017-11-24T02:39:25.467Z,53.17
2017-11-24T02:41:52.959Z,52.97
2017-11-24T02:44:20.433Z,75.03
2017-11-24T02:46:47.941Z,79.47
2017-11-24T02:49:15.464Z,83.07
2017-11-24T02:51:42.941Z,89.80
2017-11-24T02:54:10.440Z,65.73
2017-11-24T02:56:37.931Z,71.75
2017-11-24T02:59:05.428Z,67.40
2017-11-24T03:01:32.904Z,65.40
2017-11-24T03:04:00.389Z,60.57
2017-11-24T03:06:27.874Z,61.25
2017-11-24T03:08:55.330Z,69.83
2017-11-24T03:11:22.807Z,60.27
2017-11-24T03:13:50.272Z,46.23
2017-11-24T03:16:17.753Z,74.37
2017-11-24T03:18:45.263Z,71.40
2017-11-24T03:21:12.723Z,66.47
2017-11-24T03:23:40.184Z,85.77
2017-11-24T03:26:07.685Z,81.87
2017-11-24T03:28:35.146Z,76.20
2017-11-24T03:31:02.609Z,90.70
2017-11-24T03:33:30.095Z,68.47
2017-11-24T03:35:57.555Z,59.37
2017-11-24T03:38:25.012Z,80.47
2017-11-24T03:40:52.491Z,86.87
2017-11-24T03:43:19.950Z,78.07
2017-11-24T03:45:47.437Z,67.00
2017-11-24T03:48:14.894Z,69.27
2017-11-24T03:50:42.378Z,68.53
2017-11-24T03:53:09.850Z,56.03
2017-11-24T03:55:37.317Z,63.10
2017-11-24T03:58:04.799Z,53.60
2017-11-24T04:00:32.258Z,64.17
2017-11-24T04:02:59.752Z,64.73
2017-11-24T04:05:27.247Z,64.93
2017-11-24T04:07:54.926Z,63.50
2017-11-24T04:10:22.386Z,74.77
2017-11-24T04:12:49.884Z,95.80
2017-11-24T04:15:17.364Z,102.80
2017-11-24T04:17:44.825Z,105.40
2017-11-24T04:20:12.313Z,101.67
2017-11-24T04:22:39.775Z,84.00
2017-11-24T04:25:07.267Z,80.80
2017-11-24T04:27:34.726Z,69.13
2017-11-24T04:30:02.191Z,64.53
2017-11-24T04:32:29.677Z,93.03
2017-11-24T04:34:57.139Z,78.63
2017-11-24T04:37:24.634Z,98.43
2017-11-24T04:39:52.095Z,139.70
2017-11-24T04:42:19.567Z,178.37
2017-11-24T04:44:47.062Z,166.77
2017-11-24T04:47:14.573Z,128.10
2017-11-24T04:49:42.053Z,112.60
2017-11-24T04:52:09.519Z,96.43
2017-11-24T04:54:36.998Z,86.70
2017-11-24T04:57:04.479Z,82.03
2017-11-24T04:59:31.956Z,90.80
2017-11-24T05:01:59.414Z,79.70
2017-11-24T05:04:26.903Z,88.40
2017-11-24T05:06:54.366Z,90.13
2017-11-24T05:09:21.847Z,77.43
2017-11-24T05:11:49.302Z,62.90
2017-11-24T05:14:16.792Z,63.30
2017-11-24T05:16:44.278Z,72.30
2017-11-24T05:19:11.771Z,60.10
2017-11-24T05:21:39.235Z,79.27
2017-11-24T05:24:06.713Z,91.87
2017-11-24T05:26:34.207Z,136.63
2017-11-24T05:29:01.695Z,129.40
2017-11-24T05:31:29.178Z,132.80
2017-11-24T05:33:56.660Z,111.20
2017-11-24T05:36:24.156Z,140.30
2017-11-24T05:38:51.627Z,171.70
2017-11-24T05:41:19.117Z,132.93
2017-11-24T05:43:46.617Z,90.30
2017-11-24T05:46:14.087Z,108.03
2017-11-24T05:48:41.556Z,107.47
2017-11-24T05:51:09.042Z,103.93
2017-11-24T05:53:36.529Z,91.00
2017-11-24T05:56:04.017Z,133.32
2017-11-24T05:58:31.495Z,86.82
2017-11-24T06:00:59.506Z,84.80
2017-11-24T06:03:26.983Z,77.20
2017-11-24T06:05:54.452Z,60.77
2017-11-24T06:08:21.942Z,75.97
2017-11-24T06:10:49.406Z,64.63
2017-11-24T06:13:16.895Z,71.27
2017-11-24T06:15:44.362Z,83.83
2017-11-24T06:18:11.861Z,91.90
2017-11-24T06:20:39.355Z,102.70
2017-11-24T06:23:06.863Z,128.27
2017-11-24T06:25:34.370Z,120.23
2017-11-24T06:28:02.441Z,143.85
2017-11-24T06:30:29.918Z,146.70
2017-11-24T06:32:57.470Z,145.07
2017-11-24T06:35:24.954Z,132.57
2017-11-24T06:37:52.431Z,145.68
2017-11-24T06:40:19.914Z,152.90
2017-11-24T06:42:47.418Z,134.40
2017-11-24T06:45:14.914Z,115.80
2017-11-24T06:47:42.375Z,95.07
2017-11-24T06:50:09.962Z,94.20
2017-11-24T06:52:37.799Z,242.90
2017-11-24T06:55:05.263Z,118.53
2017-11-24T06:57:32.751Z,83.50
2017-11-24T07:00:00.220Z,101.07
2017-11-24T07:02:27.714Z,91.13
2017-11-24T07:04:55.171Z,79.53
2017-11-24T07:07:22.657Z,98.77
2017-11-24T07:09:50.135Z,72.50
2017-11-24T07:12:17.601Z,78.50
2017-11-24T07:14:45.092Z,66.23
2017-11-24T07:17:12.550Z,74.17
2017-11-24T07:19:40.037Z,69.87
2017-11-24T07:22:07.495Z,66.80
2017-11-24T07:24:34.959Z,61.50
2017-11-24T07:27:02.548Z,94.57
2017-11-24T07:29:30.004Z,112.83
2017-11-24T07:31:57.470Z,94.43
2017-11-24T07:34:24.966Z,119.33
2017-11-24T07:36:52.420Z,93.93
2017-11-24T07:39:19.908Z,110.93
2017-11-24T07:41:47.374Z,159.80
2017-11-24T07:44:14.834Z,217.10
2017-11-24T07:46:42.318Z,249.27
2017-11-24T07:49:09.791Z,327.50
2017-11-24T07:51:37.292Z,359.67
2017-11-24T07:54:04.744Z,262.87
2017-11-24T07:56:32.591Z,265.53
2017-11-24T07:59:00.063Z,225.23
2017-11-24T08:01:27.530Z,212.53
2017-11-24T08:03:55.289Z,196.53
2017-11-24T08:06:22.761Z,265.37
2017-11-24T08:08:50.230Z,251.73
2017-11-24T08:11:17.715Z,266.50
2017-11-24T08:13:45.171Z,190.10
2017-11-24T08:16:12.670Z,183.53
2017-11-24T08:18:40.153Z,149.33
2017-11-24T08:21:07.615Z,149.53
2017-11-24T08:23:35.110Z,120.30
2017-11-24T08:26:02.603Z,132.13
2017-11-24T08:28:30.249Z,115.83
2017-11-24T08:30:57.707Z,101.10
2017-11-24T08:33:25.183Z,75.77
2017-11-24T08:35:52.688Z,65.83
2017-11-24T08:38:20.155Z,63.60
2017-11-24T08:40:47.650Z,111.97
2017-11-24T08:43:15.112Z,53.50
2017-11-24T08:45:42.658Z,41.30
2017-11-24T08:48:15.690Z,36.40
2017-11-24T08:50:43.157Z,39.07
2017-11-24T08:53:10.631Z,32.37
2017-11-24T08:55:38.086Z,39.13
2017-11-24T08:58:05.567Z,27.33
2017-11-24T09:00:33.055Z,22.10
2017-11-24T09:03:00.533Z,24.80
2017-11-24T09:05:28.026Z,20.07
2017-11-24T09:07:55.491Z,27.30
2017-11-24T09:10:22.974Z,29.13
2017-11-24T09:12:50.434Z,23.33
2017-11-24T09:15:17.891Z,28.87
2017-11-24T09:17:45.380Z,43.30
2017-11-24T09:20:12.839Z,32.23
2017-11-24T09:22:40.335Z,40.73
2017-11-24T09:25:07.874Z,34.47
2017-11-24T09:27:35.369Z,45.90
2017-11-24T09:30:02.858Z,39.33
2017-11-24T09:32:30.332Z,49.80
2017-11-24T09:34:58.059Z,45.17
2017-11-24T09:37:25.538Z,50.33
2017-11-24T09:39:53.007Z,51.53
2017-11-24T09:42:20.533Z,44.33
2017-11-24T09:44:47.991Z,55.70
2017-11-24T09:47:15.473Z,45.00
2017-11-24T09:49:42.971Z,35.23
2017-11-24T09:52:10.453Z,33.13
2017-11-24T09:54:37.938Z,29.23
2017-11-24T09:57:05.429Z,25.43
2017-11-24T09:59:32.892Z,38.70
2017-11-24T10:02:00.356Z,26.93
2017-11-24T10:04:27.834Z,25.90
2017-11-24T10:06:55.314Z,25.00
2017-11-24T10:09:22.759Z,22.57
2017-11-24T10:11:50.239Z,22.30
2017-11-24T10:14:17.711Z,21.17
2017-11-24T10:16:45.175Z,23.27
2017-11-24T10:19:12.660Z,24.67
2017-11-24T10:21:45.734Z,25.40
2017-11-24T10:24:13.218Z,29.60
2017-11-24T10:26:40.683Z,32.33
2017-11-24T10:29:08.188Z,29.83
2017-11-24T10:31:35.674Z,34.33
2017-11-24T10:34:03.137Z,27.60
2017-11-24T10:36:30.601Z,41.00
2017-11-24T10:38:58.080Z,32.50
2017-11-24T10:41:25.562Z,30.07
2017-11-24T10:43:53.021Z,28.13
2017-11-24T10:46:20.501Z,27.03
2017-11-24T10:48:47.993Z,30.20
2017-11-24T10:51:15.498Z,23.90
2017-11-24T10:53:43.318Z,29.83
2017-11-24T10:56:10.775Z,35.40
2017-11-24T10:58:38.315Z,35.37
2017-11-24T11:01:05.801Z,23.50
2017-11-24T11:03:33.275Z,28.23
2017-11-24T11:06:00.759Z,26.83
2017-11-24T11:08:28.213Z,21.50
2017-11-24T11:10:55.693Z,20.73
2017-11-24T11:13:23.170Z,18.80
2017-11-24T11:15:50.622Z,22.07
2017-11-24T11:18:18.090Z,24.10
2017-11-24T11:20:45.575Z,47.57
2017-11-24T11:23:13.043Z,23.83
2017-11-24T11:25:40.498Z,24.57
2017-11-24T11:28:07.978Z,21.30
2017-11-24T11:30:35.435Z,20.13
2017-11-24T11:33:02.890Z,20.17
2017-11-24T11:35:30.371Z,17.27
2017-11-24T11:37:57.855Z,21.23
2017-11-24T11:40:25.331Z,21.40
2017-11-24T11:42:52.806Z,25.63
2017-11-24T11:45:20.287Z,20.53
2017-11-24T11:47:47.742Z,38.73
2017-11-24T11:50:15.248Z,31.87
2017-11-24T11:52:42.717Z,24.33
2017-11-24T11:55:10.172Z,24.23
2017-11-24T11:57:37.674Z,24.93
2017-11-24T12:00:05.139Z,25.70
2017-11-24T12:02:32.601Z,23.73
2017-11-24T12:05:00.104Z,24.43
2017-11-24T12:07:27.583Z,24.63
2017-11-24T12:09:55.042Z,22.63
2017-11-24T12:12:22.520Z,32.00
2017-11-24T12:14:49.978Z,19.93
2017-11-24T12:17:17.429Z,28.67
2017-11-24T12:19:44.913Z,19.33
2017-11-24T12:22:12.379Z,25.90
2017-11-24T12:24:39.875Z,30.90
2017-11-24T12:27:07.337Z,27.10
2017-11-24T12:29:34.806Z,24.83
2017-11-24T12:32:02.293Z,26.23
2017-11-24T12:34:29.751Z,27.37
2017-11-24T12:36:57.218Z,24.10
2017-11-24T12:39:24.714Z,24.30
2017-11-24T12:41:52.192Z,22.60
2017-11-24T12:44:19.683Z,27.47
2017-11-24T12:46:47.142Z,24.70
2017-11-24T12:49:14.636Z,22.33
2017-11-24T12:51:42.089Z,23.67
2017-11-24T12:54:09.540Z,38.30
2017-11-24T12:56:37.016Z,23.90
2017-11-24T12:59:04.475Z,18.33
2017-11-24T13:01:31.947Z,20.13
2017-11-24T13:03:59.401Z,26.43
2017-11-24T13:06:26.882Z,18.33
2017-11-24T13:08:54.346Z,16.60
2017-11-24T13:11:21.902Z,19.23
2017-11-24T13:13:49.383Z,22.70
2017-11-24T13:16:16.867Z,19.77
2017-11-24T13:18:44.326Z,22.30
2017-11-24T13:21:11.808Z,21.20
2017-11-24T13:23:39.258Z,25.20
2017-11-24T13:26:06.719Z,30.23
2017-11-24T13:28:34.202Z,21.47
2017-11-24T13:31:01.676Z,26.42
2017-11-24T13:33:29.161Z,19.90
2017-11-24T13:35:56.622Z,22.75
2017-11-24T13:38:24.108Z,22.30
2017-11-24T13:40:51.563Z,22.63
2017-11-24T13:43:19.038Z,22.23
2017-11-24T13:45:46.496Z,24.80
2017-11-24T13:48:13.949Z,34.03
2017-11-24T13:50:41.446Z,32.83
2017-11-24T13:53:08.973Z,28.10
2017-11-24T13:55:36.483Z,26.13
2017-11-24T13:58:03.952Z,23.70
2017-11-24T14:00:31.439Z,29.93
2017-11-24T14:02:58.945Z,25.23
2017-11-24T14:05:26.435Z,23.37
2017-11-24T14:07:53.969Z,26.00
2017-11-24T14:10:21.452Z,25.13
2017-11-24T14:12:48.958Z,20.27
2017-11-24T14:15:16.454Z,22.90
2017-11-24T14:17:43.911Z,19.70
2017-11-24T14:20:11.384Z,18.00
2017-11-24T14:22:38.843Z,19.90
2017-11-24T14:25:06.333Z,28.00
2017-11-24T14:27:34.126Z,20.60
2017-11-24T14:30:01.599Z,20.30
2017-11-24T14:32:29.091Z,26.20
2017-11-24T14:34:56.544Z,33.33
2017-11-24T14:37:24.045Z,45.33
2017-11-24T14:39:51.502Z,23.70
2017-11-24T14:42:18.971Z,23.67
2017-11-24T14:44:46.478Z,28.17
2017-11-24T14:47:13.954Z,25.93
2017-11-24T14:49:41.431Z,33.40
2017-11-24T14:52:08.894Z,41.70
2017-11-24T14:54:37.378Z,37.13
2017-11-24T14:57:05.572Z,40.10
2017-11-24T14:59:33.780Z,48.73
2017-11-24T15:02:01.992Z,58.27
2017-11-24T15:04:29.464Z,51.10
2017-11-24T15:06:56.942Z,41.43
2017-11-24T15:09:24.412Z,45.80
2017-11-24T15:11:51.903Z,73.63
2017-11-24T15:14:19.352Z,58.93
2017-11-24T15:16:46.842Z,64.60
2017-11-24T15:19:14.303Z,84.60
2017-11-24T15:21:41.788Z,79.80
2017-11-24T15:24:09.264Z,77.23
2017-11-24T15:26:36.754Z,69.90
2017-11-24T15:29:04.212Z,67.43
2017-11-24T15:31:31.669Z,99.17
2017-11-24T15:33:59.154Z,91.13
2017-11-24T15:36:26.623Z,66.60
2017-11-24T15:38:54.107Z,78.17
2017-11-24T15:41:21.575Z,71.60
2017-11-24T15:43:49.086Z,78.03
2017-11-24T15:46:16.565Z,84.03
2017-11-24T15:48:44.022Z,68.67
2017-11-24T15:51:11.553Z,73.77
2017-11-24T15:53:39.044Z,64.80
2017-11-24T15:56:06.506Z,77.97
2017-11-24T15:58:33.994Z,105.17
2017-11-24T16:01:01.454Z,80.60
2017-11-24T16:03:28.935Z,53.90
2017-11-24T16:05:56.413Z,91.73
2017-11-24T16:08:23.877Z,109.47
2017-11-24T16:10:51.370Z,41.80
2017-11-24T16:13:18.849Z,46.93
2017-11-24T16:15:46.335Z,106.00
2017-11-24T16:18:13.836Z,228.97
2017-11-24T16:20:41.303Z,107.50
2017-11-24T16:23:08.795Z,76.93
2017-11-24T16:25:36.262Z,125.13
2017-11-24T16:28:03.733Z,80.43
2017-11-24T16:30:31.238Z,156.37
2017-11-24T16:33:00.430Z,327.07
2017-11-24T16:35:29.899Z,378.00
2017-11-24T16:37:57.481Z,138.97
2017-11-24T16:40:24.955Z,388.73
2017-11-24T16:42:52.443Z,183.50
2017-11-24T16:45:19.902Z,184.40
2017-11-24T16:47:47.385Z,75.77
2017-11-24T16:50:14.857Z,157.67
2017-11-24T16:52:42.339Z,137.70
2017-11-24T16:55:09.823Z,232.13
2017-11-24T16:57:37.831Z,103.60
2017-11-24T17:00:05.396Z,447.83
2017-11-24T17:02:32.870Z,402.07
2017-11-24T17:05:00.338Z,349.03
2017-11-24T17:07:28.726Z,336.40
2017-11-24T17:09:56.182Z,80.67
2017-11-24T17:12:23.641Z,107.77
2017-11-24T17:14:51.133Z,390.80
2017-11-24T17:17:18.627Z,185.43
2017-11-24T17:19:46.092Z,91.03
2017-11-24T17:22:13.567Z,244.73
2017-11-24T17:24:41.078Z,152.73
2017-11-24T17:27:08.575Z,181.10
2017-11-24T17:29:36.047Z,114.17
2017-11-24T17:32:03.510Z,208.90
2017-11-24T17:34:31.293Z,104.97
2017-11-24T17:36:58.780Z,225.03
2017-11-24T17:39:26.247Z,98.23
2017-11-24T17:41:53.719Z,231.93
2017-11-24T17:44:21.224Z,101.30
2017-11-24T17:46:48.840Z,184.83
2017-11-24T17:49:16.355Z,231.20
2017-11-24T17:51:43.817Z,179.67
2017-11-24T17:54:11.318Z,188.13
2017-11-24T17:56:38.822Z,215.23
2017-11-24T17:59:06.282Z,368.27
2017-11-24T18:01:33.802Z,146.63
2017-11-24T18:04:01.363Z,137.10
2017-11-24T18:06:28.874Z,129.67
2017-11-24T18:08:56.346Z,140.50
2017-11-24T18:11:23.836Z,151.77
2017-11-24T18:13:51.983Z,485.00
2017-11-24T18:16:19.946Z,218.50
2017-11-24T18:18:47.406Z,171.93
2017-11-24T18:21:14.899Z,230.90
2017-11-24T18:23:42.374Z,157.07
2017-11-24T18:26:10.035Z,233.63
2017-11-24T18:28:37.778Z,410.10
2017-11-24T18:31:07.128Z,269.30
2017-11-24T18:33:34.687Z,152.33
2017-11-24T18:36:02.170Z,291.57
2017-11-24T18:38:29.644Z,329.10
2017-11-24T18:40:57.150Z,327.53
2017-11-24T18:43:24.637Z,175.90
2017-11-24T18:45:52.127Z,263.37
2017-11-24T18:48:19.598Z,190.40
2017-11-24T18:50:47.394Z,137.67
2017-11-24T18:53:15.759Z,187.50
2017-11-24T18:55:43.694Z,386.03
2017-11-24T18:58:11.672Z,265.43
2017-11-24T19:00:39.298Z,283.20
2017-11-24T19:03:06.808Z,146.50
2017-11-24T19:05:34.486Z,116.97
2017-11-24T19:08:02.339Z,201.17
2017-11-24T19:10:31.263Z,193.53
2017-11-24T19:12:59.182Z,93.93
2017-11-24T19:15:26.811Z,106.63
2017-11-24T19:17:54.274Z,180.67
2017-11-24T19:20:22.147Z,335.67
2017-11-24T19:22:49.705Z,197.63
2017-11-24T19:25:17.358Z,183.17
2017-11-24T19:27:44.850Z,148.40
2017-11-24T19:30:12.335Z,113.43
2017-11-24T19:32:39.945Z,102.40
2017-11-24T19:35:07.786Z,146.17
2017-11-24T19:37:35.266Z,129.70
2017-11-24T19:40:02.942Z,116.37
2017-11-24T19:42:30.433Z,92.77
2017-11-24T19:44:57.895Z,104.90
2017-11-24T19:47:25.398Z,119.43
2017-11-24T19:49:53.760Z,97.10
2017-11-24T19:52:21.227Z,392.23
2017-11-24T19:54:49.649Z,301.17
2017-11-24T19:57:17.114Z,279.40
2017-11-24T19:59:45.143Z,219.43
2017-11-24T20:02:12.648Z,106.53
2017-11-24T20:04:40.133Z,77.60
2017-11-24T20:07:08.134Z,84.23
2017-11-24T20:09:35.605Z,89.10
2017-11-24T20:12:03.169Z,90.40
2017-11-24T20:14:31.176Z,114.93
2017-11-24T20:16:58.954Z,80.93
2017-11-24T20:19:26.414Z,101.20
2017-11-24T20:21:53.882Z,78.07
2017-11-24T20:24:21.467Z,71.07
2017-11-24T20:26:49.261Z,123.73
2017-11-24T20:29:16.830Z,72.83
2017-11-24T20:31:44.333Z,66.77
2017-11-24T20:34:11.818Z,142.50
2017-11-24T20:36:39.341Z,155.00
2017-11-24T20:39:06.819Z,146.97
2017-11-24T20:41:34.315Z,125.27
2017-11-24T20:44:02.377Z,139.50
2017-11-24T20:46:29.856Z,313.57
2017-11-24T20:48:57.370Z,243.47
2017-11-24T20:51:25.105Z,195.43
2017-11-24T20:53:52.662Z,353.00
2017-11-24T20:56:20.774Z,209.23
2017-11-24T20:58:48.270Z,301.07
2017-11-24T21:01:15.760Z,229.03
2017-11-24T21:03:43.237Z,191.60
2017-11-24T21:06:10.918Z,126.97
2017-11-24T21:08:38.371Z,212.47
2017-11-24T21:11:05.867Z,305.30
2017-11-24T21:13:33.334Z,229.13
2017-11-24T21:16:00.820Z,264.93
2017-11-24T21:18:28.311Z,243.87
2017-11-24T21:20:55.783Z,297.83
2017-11-24T21:23:23.269Z,303.23
2017-11-24T21:25:50.742Z,308.23
2017-11-24T21:28:18.247Z,350.67
2017-11-24T21:30:45.714Z,318.37
2017-11-24T21:33:13.227Z,379.60
2017-11-24T21:35:40.730Z,334.53
2017-11-24T21:38:08.420Z,327.07
2017-11-24T21:40:35.891Z,335.80
2017-11-24T21:43:03.374Z,354.37
2017-11-24T21:45:30.851Z,366.73
2017-11-24T21:47:58.346Z,365.07
2017-11-24T21:50:25.837Z,297.47
2017-11-24T21:52:53.816Z,339.67
2017-11-24T21:55:21.312Z,282.13
2017-11-24T21:57:48.795Z,283.23
2017-11-24T22:00:16.278Z,283.80
2017-11-24T22:02:43.763Z,168.73
2017-11-24T22:05:11.250Z,187.80
2017-11-24T22:07:38.746Z,130.50
2017-11-24T22:10:06.210Z,128.80
2017-11-24T22:12:33.696Z,96.27
2017-11-24T22:15:01.162Z,199.20
2017-11-24T22:17:28.653Z,110.43
2017-11-24T22:19:56.142Z,99.80
2017-11-24T22:22:23.870Z,89.80
2017-11-24T22:24:51.357Z,176.00
2017-11-24T22:27:18.831Z,117.10
2017-11-24T22:29:46.442Z,106.93
2017-11-24T22:32:15.394Z,136.77
2017-11-24T22:34:44.054Z,136.57
2017-11-24T22:37:11.518Z,113.93
2017-11-24T22:39:38.990Z,89.47
2017-11-24T22:42:06.471Z,89.40
2017-11-24T22:44:33.928Z,77.90
2017-11-24T22:47:01.400Z,76.10
2017-11-24T22:49:28.890Z,125.20
2017-11-24T22:51:56.358Z,130.77
2017-11-24T22:54:23.848Z,91.30
2017-11-24T22:56:51.324Z,73.37
2017-11-24T22:59:18.818Z,77.27
2017-11-24T23:01:46.291Z,124.57
2017-11-24T23:04:13.754Z,90.03
2017-11-24T23:06:41.254Z,132.20
2017-11-24T23:09:08.749Z,68.93
2017-11-24T23:11:36.222Z,79.53
2017-11-24T23:14:03.690Z,119.40
2017-11-24T23:16:31.202Z,89.37
2017-11-24T23:18:58.673Z,124.93
2017-11-24T23:21:26.140Z,105.63
2017-11-24T23:23:53.639Z,66.40
2017-11-24T23:26:21.155Z,182.73
2017-11-24T23:28:48.615Z,196.57
2017-11-24T23:31:16.070Z,338.80
2017-11-24T23:33:43.554Z,123.27
2017-11-24T23:36:11.007Z,201.10
2017-11-24T23:38:38.487Z,273.03
2017-11-24T23:41:05.959Z,363.83
2017-11-24T23:43:33.434Z,328.23
2017-11-24T23:46:00.932Z,273.53
2017-11-24T23:48:28.396Z,399.27
2017-11-24T23:50:55.855Z,334.40
2017-11-24T23:53:23.339Z,244.30
2017-11-24T23:55:50.845Z,136.97
2017-11-24T23:58:18.334Z,165.80
